Terminal Aerodrome Forecast
Issued by NWS

Home | Current Version | Previous Version | Graphics & Text | Print | Product List | Glossary On
Versions: 1 2 3 4 5 6 7 8 9 10 11 12 13 14 15
000
FTUS43 KGRB 221428 AAA
TAFAUW
TAF AMD
KAUW 221428Z 2214/2312 25009KT P6SM SCT018 BKN040
      TEMPO 2215/2219 3SM TSRA BR BKN018CB
     FM221900 31005KT 6SM -SHRA SCT020 BKN045
      TEMPO 2219/2223 3SM +TSRA BKN020CB
     FM222300 33004KT 3SM TSRA BKN020CB
     FM230200 35004KT 5SM BR SCT020 BKN070
     FM230700 29005KT P6SM SCT025 BKN120=

USA.gov is the U.S. government's official web portal to all federal, state and local government web resources and services.